Latest Weather Observations for Cape Bruny AWS

IDT60901

Issued at 3:31 am EDT Wednesday 22 February 2017 (issued every 10 minutes, with the page automatically refreshed every 10 minutes)

About weather observations | Map of Hobart area stations | Latest observations for Hobart area | Other Formats
Station Details ID: 094198 Name: CAPE BRUNY (CAPE BRUNY) Lat: -43.49 Lon: 147.14 Height: 59.7 m
Data from the previous 72 hours. | See also: Recent months at Cape Bruny AWS
Date/Time
EDT
Temp
°C
App
Temp
°C
Dew
Point
°C
Rel
Hum
%
Delta-T
°C
Wind Press
QNH
hPa
Press
MSL
hPa
Rain since
9am
mm
Dir  Spd
km/h
Gust
km/h
Spd
kts
Gust
kts
22/03:30am 11.1 8.9 9.2 88 0.9 N 11 17 6 9 1017.1 1017.1 0.2
22/03:00am 10.6 8.6 8.5 87 1.0 N 9 13 5 7 1017.4 1017.4 0.2
22/02:30am 10.7 8.7 8.5 86 1.1 N 9 13 5 7 1017.6 1017.6 0.2
22/02:00am 10.5 8.3 7.9 84 1.3 NNE 9 13 5 7 1017.9 1017.9 0.2
22/01:30am 10.4 8.1 7.6 83 1.3 NNE 9 13 5 7 1018.4 1018.4 0.2
22/01:00am 10.4 8.5 7.5 82 1.4 NE 7 9 4 5 1018.7 1018.7 0.2
22/12:30am 10.7 9.4 7.6 81 1.5 E 4 7 2 4 1019.0 1019.0 0.2
22/12:00am 10.7 9.0 7.4 80 1.6 E 6 7 3 4 1019.2 1019.1 0.2
 
Date/Time
EDT
Temp
°C
App
Temp
°C
Dew
Point
°C
Rel
Hum
%
Delta-T
°C
Wind Press
QNH
hPa
Press
MSL
hPa
Rain since
9am
mm
Dir  Spd
km/h
Gust
km/h
Spd
kts
Gust
kts
21/11:30pm 11.1 9.1 7.2 77 1.9 SE 7 9 4 5 1019.3 1019.2 0.2
21/11:00pm 11.9 9.7 8.0 77 1.9 SSW 9 13 5 7 1019.5 1019.4 0.2
21/10:30pm 12.0 9.1 8.1 77 1.9 SW 13 17 7 9 1019.8 1019.7 0.2
21/10:00pm 12.0 8.3 8.1 77 1.9 SW 17 24 9 13 1019.6 1019.5 0.2
21/09:30pm 12.1 7.8 8.0 76 2.0 SW 20 30 11 16 1019.3 1019.2 0.2
21/09:00pm 12.2 7.2 7.9 75 2.1 SW 24 35 13 19 1019.0 1019.0 0.2
21/08:30pm 12.4 6.9 7.7 73 2.3 SW 26 39 14 21 1018.6 1018.6 0.2
21/08:00pm 12.7 7.2 7.6 71 2.5 WSW 26 37 14 20 1018.4 1018.4 0.2
21/07:30pm 13.5 7.7 8.1 70 2.7 SW 28 41 15 22 1018.2 1018.2 0.2
21/07:00pm 14.2 8.3 7.3 63 3.4 WSW 28 39 15 21 1017.9 1017.9 0.2
21/06:30pm 14.8 8.5 7.6 62 3.6 SW 30 43 16 23 1017.6 1017.6 0.2
21/06:00pm 15.0 8.7 7.5 61 3.7 WSW 30 46 16 25 1017.6 1017.6 0.2
21/05:30pm 15.7 9.1 7.7 59 4.0 SW 32 43 17 23 1017.6 1017.6 0.2
21/05:00pm 16.1 9.9 7.8 58 4.2 WSW 30 44 16 24 1017.3 1017.3 0.2
21/04:30pm 16.0 9.6 8.7 62 3.7 SW 32 44 17 24 1017.3 1017.3 0.2
21/04:00pm 16.4 10.6 8.1 58 4.2 SW 28 44 15 24 1017.3 1017.3 0.2
21/03:30pm 16.7 11.0 8.4 58 4.2 WSW 28 37 15 20 1017.3 1017.3 0.2
21/03:00pm 16.4 9.7 8.1 58 4.2 WSW 33 50 18 27 1017.2 1017.2 0.2
21/02:30pm 16.8 9.4 8.5 58 4.3 WSW 37 46 20 25 1017.4 1017.4 0.2
21/02:00pm 17.3 10.7 7.9 54 4.8 WSW 32 41 17 22 1017.4 1017.4 0.2
21/01:30pm 16.8 9.9 7.4 54 4.7 WSW 33 46 18 25 1017.4 1017.4 0.2
21/01:00pm 16.9 9.2 7.0 52 4.9 WSW 37 48 20 26 1017.2 1017.2 0.0
21/12:30pm 16.4 9.3 5.4 48 5.3 W 32 46 17 25 1017.3 1017.3 0.0
21/12:00pm 15.9 9.1 6.9 55 4.4 W 32 39 17 21 1017.4 1017.4 0.0
21/11:30am 14.6 7.5 8.1 65 3.3 WSW 35 46 19 25 1017.5 1017.5 0.0
21/11:00am 13.6 5.2 7.4 66 3.0 WSW 41 50 22 27 1017.5 1017.5 0.0
21/10:44am 14.3 7.4 7.1 62 3.5 WSW 33 52 18 28 1017.3 1017.3 0.0
21/10:30am 14.5 7.7 6.8 60 3.8 W 32 41 17 22 1017.3 1017.3 0.0
21/10:00am 14.5 7.4 6.3 58 3.9 W 33 43 18 23 1017.1 1017.1 0.0
21/09:30am 13.6 6.4 5.7 59 3.7 W 33 41 18 22 1017.1 1017.1 0.0
21/09:00am 12.8 4.8 5.9 63 3.3 W 37 52 20 28 1016.6 1016.6 7.8
21/08:30am 12.6 5.5 6.6 67 2.9 W 33 41 18 22 1016.5 1016.5 7.8
21/08:00am 12.5 5.0 6.5 67 2.9 W 35 43 19 23 1016.1 1016.1 7.8
21/07:30am 12.5 4.6 6.3 66 2.9 W 37 44 20 24 1015.5 1015.4 7.8
21/07:00am 12.6 4.2 5.8 63 3.2 W 39 50 21 27 1015.1 1015.0 7.8
21/06:30am 12.7 4.5 6.7 67 2.9 WSW 39 48 21 26 1014.8 1014.7 7.8
21/06:00am 12.9 4.1 7.1 68 2.8 WSW 43 54 23 29 1014.4 1014.3 7.8
21/05:30am 12.9 5.4 6.5 65 3.1 WSW 35 46 19 25 1013.9 1013.8 7.8
21/05:00am 12.8 4.9 6.4 65 3.1 WSW 37 48 20 26 1013.9 1013.8 7.8
21/04:30am 13.0 4.1 7.5 69 2.7 WSW 44 56 24 30 1013.5 1013.4 7.8
21/04:00am 12.7 5.4 7.2 69 2.7 WSW 35 50 19 27 1013.2 1013.1 7.8
21/03:30am 12.3 5.8 8.8 79 1.8 WSW 33 44 18 24 1013.0 1012.9 7.8
21/03:00am 12.5 6.2 9.0 79 1.8 W 32 46 17 25 1012.8 1012.7 7.8
21/02:30am 12.1 6.8 8.4 78 1.8 WSW 26 37 14 20 1012.8 1012.7 7.6
21/02:00am 12.6 6.6 7.1 69 2.7 WSW 28 35 15 19 1012.7 1012.6 7.6
21/01:30am 12.3 5.4 6.4 67 2.8 WSW 32 44 17 24 1012.8 1012.7 7.6
21/01:00am 12.3 6.0 5.7 64 3.1 WSW 28 43 15 23 1012.8 1012.7 7.6
21/12:30am 12.5 5.1 6.8 68 2.7 WSW 35 48 19 26 1012.9 1012.8 7.6
21/12:10am 12.7 6.1 7.6 71 2.5 WSW 32 50 17 27 1012.7 1012.6 7.6
21/12:00am 12.6 5.2 6.6 67 2.9 WSW 35 48 19 26 1012.8 1012.7 7.6
 
Date/Time
EDT
Temp
°C
App
Temp
°C
Dew
Point
°C
Rel
Hum
%
Delta-T
°C
Wind Press
QNH
hPa
Press
MSL
hPa
Rain since
9am
mm
Dir  Spd
km/h
Gust
km/h
Spd
kts
Gust
kts
20/11:49pm 12.7 6.0 7.2 69 2.7 WSW 32 50 17 27 1012.7 1012.6 7.6
20/11:30pm 12.8 5.7 7.9 72 2.4 WSW 35 46 19 25 1012.8 1012.7 7.6
20/11:11pm 12.4 5.5 7.1 70 2.6 WSW 33 44 18 24 1012.7 1012.6 7.6
20/11:00pm 12.0 4.9 8.1 77 1.9 WSW 35 52 19 28 1012.7 1012.6 7.6
20/10:30pm 12.7 5.7 6.7 67 2.9 SW 33 46 18 25 1012.6 1012.5 7.6
20/10:05pm 12.8 5.4 6.6 66 3.0 SW 35 54 19 29 1012.7 1012.6 7.6
20/10:00pm 12.6 5.2 6.9 68 2.7 SW 35 50 19 27 1012.7 1012.6 7.6
20/09:30pm 12.4 5.9 8.3 76 2.0 SW 32 46 17 25 1012.5 1012.4 7.6
20/09:00pm 12.3 5.9 8.4 77 1.9 SW 32 41 17 22 1012.2 1012.1 7.6
20/08:30pm 12.8 6.7 8.1 73 2.3 SW 30 50 16 27 1011.6 1011.5 7.6
20/08:00pm 12.7 8.2 8.6 76 2.1 SW 22 35 12 19 1011.3 1011.2 7.6
20/07:30pm 12.8 8.3 8.7 76 2.1 SSW 22 41 12 22 1010.9 1010.8 7.6
20/07:00pm 13.3 9.0 9.2 76 2.1 SSW 22 41 12 22 1010.6 1010.5 7.6
20/06:31pm 13.5 8.1 9.6 77 2.0 S 28 46 15 25 1010.1 1010.0 7.6
20/06:30pm 13.5 8.1 9.6 77 2.0 S 28 43 15 23 1010.1 1010.0 7.6
20/06:17pm 14.1 8.2 10.5 79 1.9 S 32 50 17 27 1010.0 1009.9 7.6
20/06:00pm 13.7 8.1 10.1 79 1.9 S 30 43 16 23 1009.8 1009.7 7.6
20/05:30pm 13.7 7.8 10.3 80 1.8 S 32 46 17 25 1009.6 1009.5 7.6
20/05:00pm 14.1 8.9 10.3 78 2.0 SSE 28 39 15 21 1009.3 1009.2 7.6
20/04:30pm 14.6 9.0 11.4 81 1.7 S 32 46 17 25 1008.9 1008.8 7.6
20/04:00pm 13.8 8.1 11.0 83 1.5 SSE 32 41 17 22 1008.8 1008.7 7.6
20/03:40pm 13.1 7.2 10.5 84 1.4 S 32 50 17 27 1008.7 1008.6 7.6
20/03:30pm 13.2 7.7 10.6 84 1.4 SSE 30 44 16 24 1008.7 1008.6 7.6
20/03:00pm 14.8 10.7 11.4 80 1.8 S 24 39 13 21 1008.7 1008.6 7.2
20/02:30pm 14.6 11.3 11.7 83 1.6 S 20 37 11 20 1008.5 1008.4 7.2
20/02:00pm 13.6 10.5 11.7 88 1.0 S 19 30 10 16 1008.4 1008.3 7.2
20/01:30pm 13.6 11.4 12.0 90 0.9 WSW 15 24 8 13 1008.4 1008.3 7.2
20/01:00pm 12.2 9.5 10.4 89 0.9 WSW 15 20 8 11 1008.8 1008.7 6.4
20/12:30pm 12.3 7.9 10.4 88 1.0 S 24 35 13 19 1009.0 1008.9 3.0
20/12:00pm 13.1 9.1 10.6 85 1.3 S 22 33 12 18 1008.8 1008.7 0.4
20/11:30am 15.1 10.6 10.1 72 2.6 SW 24 35 13 19 1008.9 1008.8 0.0
20/11:00am 15.4 12.3 10.4 72 2.6 WSW 17 28 9 15 1008.8 1008.7 0.0
20/10:30am 15.2 12.1 10.4 73 2.5 WSW 17 24 9 13 1008.8 1008.7 0.0
20/10:00am 13.7 12.1 10.1 79 1.9 W 9 13 5 7 1008.6 1008.5 0.0
20/09:30am 13.3 11.2 9.7 79 1.8 WNW 11 13 6 7 1008.5 1008.4 0.0
20/09:00am 11.9 9.7 9.3 84 1.3 WNW 11 13 6 7 1008.4 1008.3 0.0
20/08:30am 11.2 8.9 8.9 86 1.1 WNW 11 13 6 7 1008.4 1008.3 0.0
20/08:00am 10.3 7.4 8.2 87 1.0 WNW 13 17 7 9 1008.0 1007.9 0.0
20/07:30am 10.5 7.7 8.6 88 0.9 WNW 13 17 7 9 1008.0 1007.9 0.0
20/07:00am 10.2 7.3 8.3 88 0.9 NW 13 17 7 9 1007.8 1007.7 0.0
20/06:30am 10.2 6.6 8.3 88 0.9 WNW 17 19 9 10 1007.6 1007.5 0.0
20/06:00am 10.1 6.8 8.2 88 0.9 WNW 15 17 8 9 1007.3 1007.2 0.0
20/05:30am 10.7 7.5 8.6 87 1.0 W 15 17 8 9 1006.9 1006.8 0.0
20/05:00am 10.3 7.5 8.4 88 0.9 WNW 13 15 7 8 1006.9 1006.8 0.0
20/04:30am 10.3 7.0 8.2 87 1.0 WNW 15 20 8 11 1006.8 1006.7 0.0
20/04:00am 10.7 7.5 8.6 87 1.0 WNW 15 20 8 11 1006.7 1006.6 0.0
20/03:30am 10.8 10.3 7.9 82 1.4 CALM 0 0 0 0 1006.7 1006.6 0.0
20/03:00am 11.1 9.3 8.1 82 1.5 SW 7 11 4 6 1006.6 1006.5 0.0
20/02:30am 11.4 9.9 8.6 83 1.4 SSW 6 9 3 5 1006.5 1006.4 0.0
20/02:00am 11.8 9.4 8.6 81 1.6 SSE 11 17 6 9 1006.5 1006.4 0.0
20/01:30am 12.2 9.4 8.5 78 1.8 SSE 13 20 7 11 1006.7 1006.6 0.0
20/01:00am 12.1 10.0 8.2 77 1.9 S 9 17 5 9 1006.8 1006.7 0.0
20/12:30am 11.8 8.5 8.1 78 1.8 SSE 15 22 8 12 1006.6 1006.5 0.0
20/12:00am 12.1 9.3 8.4 78 1.8 S 13 20 7 11 1006.7 1006.6 0.0
 
Date/Time
EDT
Temp
°C
App
Temp
°C
Dew
Point
°C
Rel
Hum
%
Delta-T
°C
Wind Press
QNH
hPa
Press
MSL
hPa
Rain since
9am
mm
Dir  Spd
km/h
Gust
km/h
Spd
kts
Gust
kts
19/11:30pm 12.6 9.1 8.7 77 2.0 SSE 17 24 9 13 1006.7 1006.6 0.0
19/11:00pm 12.2 9.6 9.2 82 1.5 W 13 19 7 10 1006.8 1006.7 0.0
19/10:30pm 12.7 9.4 9.5 81 1.6 W 17 19 9 10 1006.6 1006.5 0.0
19/10:00pm 12.8 9.1 9.4 80 1.7 W 19 24 10 13 1006.6 1006.5 0.0
19/09:30pm 12.9 9.5 9.2 78 1.9 W 17 20 9 11 1006.4 1006.3 0.0
19/09:00pm 13.3 9.8 8.8 74 2.3 W 17 20 9 11 1006.2 1006.1 0.0
19/08:30pm 13.4 11.1 7.6 68 2.9 SSW 9 15 5 8 1005.7 1005.6 0.0
19/08:00pm 13.8 12.0 7.1 64 3.3 SSE 6 13 3 7 1005.2 1005.1 0.0
19/07:30pm 14.6 11.6 7.9 64 3.3 SE 13 17 7 9 1004.9 1004.8 0.0
19/07:00pm 15.4 12.8 7.7 60 3.9 SSE 11 17 6 9 1004.7 1004.6 0.0
19/06:30pm 15.5 12.4 7.3 58 4.1 SE 13 17 7 9 1004.5 1004.4 0.0
19/06:00pm 15.9 12.8 7.4 57 4.3 S 13 19 7 10 1004.3 1004.2 0.0
19/05:30pm 16.2 13.0 6.9 54 4.6 SE 13 17 7 9 1004.2 1004.1 0.0
19/05:00pm 16.2 12.9 6.3 52 4.9 S 13 17 7 9 1004.1 1004.0 0.0
19/04:30pm 16.2 12.3 7.2 55 4.5 S 17 20 9 11 1004.2 1004.1 0.0
19/04:00pm 16.5 13.0 7.4 55 4.6 SSW 15 20 8 11 1004.0 1003.9 0.0
19/03:30pm 16.4 12.9 7.1 54 4.6 S 15 20 8 11 1004.0 1003.9 0.0
19/03:00pm 15.4 11.9 5.6 52 4.7 SSW 13 20 7 11 1004.2 1004.1 0.0
19/02:30pm 16.4 13.1 6.2 51 5.0 S 13 17 7 9 1004.3 1004.2 0.0
19/02:00pm 15.6 12.1 5.5 51 4.9 S 13 17 7 9 1004.2 1004.1 0.0
19/01:30pm 16.3 12.8 5.3 48 5.3 S 13 17 7 9 1004.4 1004.3 0.0
19/01:00pm 15.1 12.0 5.6 53 4.6 S 11 15 6 8 1004.4 1004.3 0.0
19/12:30pm 15.5 12.1 5.7 52 4.7 S 13 15 7 8 1004.4 1004.3 0.0
19/12:00pm 13.8 11.2 5.9 59 3.8 S 9 15 5 8 1004.5 1004.4 0.0
19/11:30am 13.4 10.7 5.6 59 3.7 S 9 13 5 7 1004.5 1004.4 0.0
19/11:00am 13.6 11.2 5.3 57 3.9 SSW 7 11 4 6 1004.5 1004.4 0.0
19/10:30am 14.4 12.2 6.3 58 3.9 W 7 11 4 6 1004.2 1004.1 0.0
19/10:00am 14.0 11.5 6.4 60 3.7 WSW 9 13 5 7 1003.7 1003.6 0.0
19/09:30am 14.5 11.8 5.6 55 4.2 W 9 11 5 6 1003.4 1003.3 0.0
19/09:00am 12.6 10.2 5.1 60 3.5 W 7 9 4 5 1003.4 1003.3 0.6
19/08:30am 13.7 12.2 4.8 55 4.1 W 2 7 1 4 1003.1 1003.0 0.6
19/08:00am 12.2 9.9 4.7 60 3.5 NW 6 7 3 4 1002.9 1002.8 0.6
19/07:30am 10.8 8.3 4.9 67 2.7 NNW 7 9 4 5 1002.7 1002.6 0.6
19/07:00am 9.1 6.2 4.5 73 2.1 NNW 9 11 5 6 1002.6 1002.5 0.6
19/06:30am 8.9 5.2 4.3 73 2.0 NNW 13 15 7 8 1002.4 1002.3 0.6
19/06:00am 8.9 5.9 4.1 72 2.1 N 9 13 5 7 1002.1 1002.0 0.6
19/05:30am 9.1 6.3 3.3 67 2.5 NNE 7 9 4 5 1002.0 1001.9 0.6
19/05:00am 10.0 5.7 3.3 63 2.9 NNW 15 17 8 9 1001.7 1001.7 0.6
19/04:30am 10.2 6.3 3.5 63 2.9 NNW 13 19 7 10 1001.6 1001.6 0.6
19/04:00am 10.1 6.2 3.4 63 2.9 NNW 13 19 7 10 1001.7 1001.7 0.6

Latest Capital City Observations: Canberra | Sydney | Melbourne | Brisbane | Adelaide | Perth | Hobart | Darwin

Other Formats:

Comma delimited format used in spreadsheet applications
http://www.bom.gov.au/fwo/IDT60901/IDT60901.95967.axf

JavaScript Object Notation format (JSON) in row-major order
http://www.bom.gov.au/fwo/IDT60901/IDT60901.95967.json